sensor_id;sensor_type;location;lat;lon;timestamp;temperature;humidity
12504;DHT22;6316;48.118;-1.690;2022-12-07T00:00:50;3.70;99.90
12504;DHT22;6316;48.118;-1.690;2022-12-07T00:03:15;3.70;99.90
12504;DHT22;6316;48.118;-1.690;2022-12-07T00:05:41;3.70;99.90
12504;DHT22;6316;48.118;-1.690;2022-12-07T00:08:07;3.60;99.90
12504;DHT22;6316;48.118;-1.690;2022-12-07T00:10:35;3.60;99.90
12504;DHT22;6316;48.118;-1.690;2022-12-07T00:13:01;3.60;99.90
12504;DHT22;6316;48.118;-1.690;2022-12-07T00:15:27;3.70;99.90
12504;DHT22;6316;48.118;-1.690;2022-12-07T00:17:52;3.80;99.90
12504;DHT22;6316;48.118;-1.690;2022-12-07T00:20:18;3.70;99.90
12504;DHT22;6316;48.118;-1.690;2022-12-07T00:22:43;3.70;99.90
12504;DHT22;6316;48.118;-1.690;2022-12-07T00:25:09;3.70;99.90
12504;DHT22;6316;48.118;-1.690;2022-12-07T00:27:35;3.70;99.90
12504;DHT22;6316;48.118;-1.690;2022-12-07T00:30:00;3.70;99.90
12504;DHT22;6316;48.118;-1.690;2022-12-07T00:32:26;3.70;99.90
12504;DHT22;6316;48.118;-1.690;2022-12-07T00:34:52;3.80;99.90
12504;DHT22;6316;48.118;-1.690;2022-12-07T00:37:17;3.80;99.90
12504;DHT22;6316;48.118;-1.690;2022-12-07T00:39:43;3.80;99.90
12504;DHT22;6316;48.118;-1.690;2022-12-07T00:42:08;3.80;99.90
12504;DHT22;6316;48.118;-1.690;2022-12-07T00:44:34;3.80;99.90
12504;DHT22;6316;48.118;-1.690;2022-12-07T00:47:00;3.80;99.90
12504;DHT22;6316;48.118;-1.690;2022-12-07T00:49:25;3.70;99.90
12504;DHT22;6316;48.118;-1.690;2022-12-07T00:51:51;3.80;99.90
12504;DHT22;6316;48.118;-1.690;2022-12-07T00:54:17;3.80;99.90
12504;DHT22;6316;48.118;-1.690;2022-12-07T00:56:42;3.70;99.90
12504;DHT22;6316;48.118;-1.690;2022-12-07T00:59:12;3.70;99.90
12504;DHT22;6316;48.118;-1.690;2022-12-07T01:01:39;3.60;99.90
12504;DHT22;6316;48.118;-1.690;2022-12-07T01:04:04;3.60;99.90
12504;DHT22;6316;48.118;-1.690;2022-12-07T01:06:31;3.60;99.90
12504;DHT22;6316;48.118;-1.690;2022-12-07T01:08:57;3.60;99.90
12504;DHT22;6316;48.118;-1.690;2022-12-07T01:11:25;3.60;99.90
12504;DHT22;6316;48.118;-1.690;2022-12-07T01:13:53;3.50;99.90
12504;DHT22;6316;48.118;-1.690;2022-12-07T01:16:20;3.50;99.90
12504;DHT22;6316;48.118;-1.690;2022-12-07T01:18:51;3.50;99.90
12504;DHT22;6316;48.118;-1.690;2022-12-07T01:21:23;3.40;99.90
12504;DHT22;6316;48.118;-1.690;2022-12-07T01:23:49;3.40;99.90
12504;DHT22;6316;48.118;-1.690;2022-12-07T01:26:20;3.40;99.90
12504;DHT22;6316;48.118;-1.690;2022-12-07T01:28:47;3.30;99.90
12504;DHT22;6316;48.118;-1.690;2022-12-07T01:31:15;3.30;99.90
12504;DHT22;6316;48.118;-1.690;2022-12-07T01:33:43;3.30;99.90
12504;DHT22;6316;48.118;-1.690;2022-12-07T01:36:21;3.20;99.90
12504;DHT22;6316;48.118;-1.690;2022-12-07T01:38:50;3.20;99.90
12504;DHT22;6316;48.118;-1.690;2022-12-07T01:41:20;3.20;99.90
12504;DHT22;6316;48.118;-1.690;2022-12-07T01:44:12;3.10;99.90
12504;DHT22;6316;48.118;-1.690;2022-12-07T01:46:39;3.10;99.90
12504;DHT22;6316;48.118;-1.690;2022-12-07T01:49:07;3.00;99.90
12504;DHT22;6316;48.118;-1.690;2022-12-07T01:51:34;3.00;99.90
12504;DHT22;6316;48.118;-1.690;2022-12-07T01:54:01;2.90;99.90
12504;DHT22;6316;48.118;-1.690;2022-12-07T01:56:27;2.90;99.90
12504;DHT22;6316;48.118;-1.690;2022-12-07T01:58:55;2.80;99.90
12504;DHT22;6316;48.118;-1.690;2022-12-07T02:01:22;2.80;99.90
12504;DHT22;6316;48.118;-1.690;2022-12-07T02:03:48;2.70;99.90
12504;DHT22;6316;48.118;-1.690;2022-12-07T02:06:17;2.70;99.90
12504;DHT22;6316;48.118;-1.690;2022-12-07T02:08:45;2.70;99.90
12504;DHT22;6316;48.118;-1.690;2022-12-07T02:11:11;2.70;99.90
12504;DHT22;6316;48.118;-1.690;2022-12-07T02:13:39;2.60;99.90
12504;DHT22;6316;48.118;-1.690;2022-12-07T02:16:24;2.60;99.90
12504;DHT22;6316;48.118;-1.690;2022-12-07T02:24:51;2.50;99.90
12504;DHT22;6316;48.118;-1.690;2022-12-07T02:30:21;2.40;99.90
12504;DHT22;6316;48.118;-1.690;2022-12-07T02:35:23;2.40;99.90
12504;DHT22;6316;48.118;-1.690;2022-12-07T02:38:02;2.40;99.90
12504;DHT22;6316;48.118;-1.690;2022-12-07T02:43:23;2.30;99.90
12504;DHT22;6316;48.118;-1.690;2022-12-07T02:45:52;2.20;99.90
12504;DHT22;6316;48.118;-1.690;2022-12-07T02:48:19;2.20;99.90
12504;DHT22;6316;48.118;-1.690;2022-12-07T02:50:50;2.20;99.90
12504;DHT22;6316;48.118;-1.690;2022-12-07T02:55:54;2.20;99.90
12504;DHT22;6316;48.118;-1.690;2022-12-07T02:58:37;2.30;99.90
12504;DHT22;6316;48.118;-1.690;2022-12-07T03:04:06;2.10;99.90
12504;DHT22;6316;48.118;-1.690;2022-12-07T03:06:42;2.00;99.90
12504;DHT22;6316;48.118;-1.690;2022-12-07T03:09:31;2.00;99.90
12504;DHT22;6316;48.118;-1.690;2022-12-07T03:12:10;2.00;99.90
12504;DHT22;6316;48.118;-1.690;2022-12-07T03:15:09;2.00;99.90
12504;DHT22;6316;48.118;-1.690;2022-12-07T03:17:38;2.00;99.90
12504;DHT22;6316;48.118;-1.690;2022-12-07T03:20:07;2.00;99.90
12504;DHT22;6316;48.118;-1.690;2022-12-07T03:22:35;1.90;99.90
12504;DHT22;6316;48.118;-1.690;2022-12-07T03:25:10;1.90;99.90
12504;DHT22;6316;48.118;-1.690;2022-12-07T03:27:41;1.90;99.90
12504;DHT22;6316;48.118;-1.690;2022-12-07T03:30:14;1.90;99.90
12504;DHT22;6316;48.118;-1.690;2022-12-07T03:40:37;1.80;99.90
12504;DHT22;6316;48.118;-1.690;2022-12-07T03:43:04;1.80;99.90
12504;DHT22;6316;48.118;-1.690;2022-12-07T03:45:42;1.80;99.90
12504;DHT22;6316;48.118;-1.690;2022-12-07T03:48:27;1.80;99.90
12504;DHT22;6316;48.118;-1.690;2022-12-07T03:53:54;1.70;99.90
12504;DHT22;6316;48.118;-1.690;2022-12-07T03:56:22;1.70;99.90
12504;DHT22;6316;48.118;-1.690;2022-12-07T03:58:49;1.70;99.90
12504;DHT22;6316;48.118;-1.690;2022-12-07T04:01:15;1.70;99.90
12504;DHT22;6316;48.118;-1.690;2022-12-07T04:03:40;1.70;99.90
12504;DHT22;6316;48.118;-1.690;2022-12-07T04:06:06;1.70;99.90
12504;DHT22;6316;48.118;-1.690;2022-12-07T04:08:32;1.60;99.90
12504;DHT22;6316;48.118;-1.690;2022-12-07T04:10:57;1.60;99.90
12504;DHT22;6316;48.118;-1.690;2022-12-07T04:13:23;1.60;99.90
12504;DHT22;6316;48.118;-1.690;2022-12-07T04:15:49;1.60;99.90
12504;DHT22;6316;48.118;-1.690;2022-12-07T04:18:14;1.60;99.90
12504;DHT22;6316;48.118;-1.690;2022-12-07T04:20:40;1.60;99.90
12504;DHT22;6316;48.118;-1.690;2022-12-07T04:23:06;1.60;99.90
12504;DHT22;6316;48.118;-1.690;2022-12-07T04:25:32;1.50;99.90
12504;DHT22;6316;48.118;-1.690;2022-12-07T04:27:57;1.60;99.90
12504;DHT22;6316;48.118;-1.690;2022-12-07T04:30:23;1.60;99.90
12504;DHT22;6316;48.118;-1.690;2022-12-07T04:32:49;1.40;99.90
12504;DHT22;6316;48.118;-1.690;2022-12-07T04:35:14;1.60;99.90
12504;DHT22;6316;48.118;-1.690;2022-12-07T04:37:40;1.50;99.90
12504;DHT22;6316;48.118;-1.690;2022-12-07T04:40:08;1.50;99.90
12504;DHT22;6316;48.118;-1.690;2022-12-07T04:42:36;1.50;99.90
12504;DHT22;6316;48.118;-1.690;2022-12-07T04:45:02;1.50;99.90
12504;DHT22;6316;48.118;-1.690;2022-12-07T04:47:28;1.40;99.90
12504;DHT22;6316;48.118;-1.690;2022-12-07T04:49:54;1.40;99.90
12504;DHT22;6316;48.118;-1.690;2022-12-07T04:52:20;1.40;99.90
12504;DHT22;6316;48.118;-1.690;2022-12-07T04:54:45;1.40;99.90
12504;DHT22;6316;48.118;-1.690;2022-12-07T04:57:11;1.40;99.90
12504;DHT22;6316;48.118;-1.690;2022-12-07T04:59:37;1.40;99.90
12504;DHT22;6316;48.118;-1.690;2022-12-07T05:02:02;1.30;99.90
12504;DHT22;6316;48.118;-1.690;2022-12-07T05:04:28;1.40;99.90
12504;DHT22;6316;48.118;-1.690;2022-12-07T05:06:54;1.30;99.90
12504;DHT22;6316;48.118;-1.690;2022-12-07T05:09:19;1.30;99.90
12504;DHT22;6316;48.118;-1.690;2022-12-07T05:11:45;1.30;99.90
12504;DHT22;6316;48.118;-1.690;2022-12-07T05:14:15;1.30;99.90
12504;DHT22;6316;48.118;-1.690;2022-12-07T05:16:42;1.30;99.90
12504;DHT22;6316;48.118;-1.690;2022-12-07T05:19:09;1.30;99.90
12504;DHT22;6316;48.118;-1.690;2022-12-07T05:21:35;1.30;99.90
12504;DHT22;6316;48.118;-1.690;2022-12-07T05:24:02;1.30;99.90
12504;DHT22;6316;48.118;-1.690;2022-12-07T05:26:28;1.30;99.90
12504;DHT22;6316;48.118;-1.690;2022-12-07T05:28:55;1.30;99.90
12504;DHT22;6316;48.118;-1.690;2022-12-07T05:31:22;1.30;99.90
12504;DHT22;6316;48.118;-1.690;2022-12-07T05:33:48;1.20;99.90
12504;DHT22;6316;48.118;-1.690;2022-12-07T05:36:13;1.20;99.90
12504;DHT22;6316;48.118;-1.690;2022-12-07T05:38:39;1.20;99.90
12504;DHT22;6316;48.118;-1.690;2022-12-07T05:41:06;1.20;99.90
12504;DHT22;6316;48.118;-1.690;2022-12-07T05:43:32;1.20;99.90
12504;DHT22;6316;48.118;-1.690;2022-12-07T05:45:58;1.30;99.90
12504;DHT22;6316;48.118;-1.690;2022-12-07T05:48:24;1.20;99.90
12504;DHT22;6316;48.118;-1.690;2022-12-07T05:50:50;1.20;99.90
12504;DHT22;6316;48.118;-1.690;2022-12-07T05:53:16;1.20;99.90
12504;DHT22;6316;48.118;-1.690;2022-12-07T05:55:42;1.20;99.90
12504;DHT22;6316;48.118;-1.690;2022-12-07T05:58:08;1.10;99.90
12504;DHT22;6316;48.118;-1.690;2022-12-07T06:00:55;1.20;99.90
12504;DHT22;6316;48.118;-1.690;2022-12-07T06:03:21;1.10;99.90
12504;DHT22;6316;48.118;-1.690;2022-12-07T06:05:46;1.00;99.90
12504;DHT22;6316;48.118;-1.690;2022-12-07T06:08:12;1.10;99.90
12504;DHT22;6316;48.118;-1.690;2022-12-07T06:10:37;1.10;99.90
12504;DHT22;6316;48.118;-1.690;2022-12-07T06:13:03;1.10;99.90
12504;DHT22;6316;48.118;-1.690;2022-12-07T06:15:29;1.00;99.90
12504;DHT22;6316;48.118;-1.690;2022-12-07T06:17:54;1.00;99.90
12504;DHT22;6316;48.118;-1.690;2022-12-07T06:20:20;1.00;99.90
12504;DHT22;6316;48.118;-1.690;2022-12-07T06:22:45;1.00;99.90
12504;DHT22;6316;48.118;-1.690;2022-12-07T06:25:11;1.00;99.90
12504;DHT22;6316;48.118;-1.690;2022-12-07T06:27:37;1.00;99.90
12504;DHT22;6316;48.118;-1.690;2022-12-07T06:30:03;1.00;99.90
12504;DHT22;6316;48.118;-1.690;2022-12-07T06:32:32;1.00;99.90
12504;DHT22;6316;48.118;-1.690;2022-12-07T06:34:59;1.00;99.90
12504;DHT22;6316;48.118;-1.690;2022-12-07T06:37:25;1.00;99.90
12504;DHT22;6316;48.118;-1.690;2022-12-07T06:39:50;1.00;99.90
12504;DHT22;6316;48.118;-1.690;2022-12-07T06:42:16;0.90;99.90
12504;DHT22;6316;48.118;-1.690;2022-12-07T06:44:41;1.00;99.90
12504;DHT22;6316;48.118;-1.690;2022-12-07T06:47:07;1.00;99.90
12504;DHT22;6316;48.118;-1.690;2022-12-07T06:49:34;1.00;99.90
12504;DHT22;6316;48.118;-1.690;2022-12-07T06:52:00;1.00;99.90
12504;DHT22;6316;48.118;-1.690;2022-12-07T06:54:26;1.00;99.90
12504;DHT22;6316;48.118;-1.690;2022-12-07T06:56:51;1.00;99.90
12504;DHT22;6316;48.118;-1.690;2022-12-07T06:59:17;1.00;99.90
12504;DHT22;6316;48.118;-1.690;2022-12-07T07:01:42;1.00;99.90
12504;DHT22;6316;48.118;-1.690;2022-12-07T07:04:08;1.00;99.90
12504;DHT22;6316;48.118;-1.690;2022-12-07T07:06:34;1.00;99.90
12504;DHT22;6316;48.118;-1.690;2022-12-07T07:08:59;1.10;99.90
12504;DHT22;6316;48.118;-1.690;2022-12-07T07:11:25;1.10;99.90
12504;DHT22;6316;48.118;-1.690;2022-12-07T07:13:51;1.10;99.90
12504;DHT22;6316;48.118;-1.690;2022-12-07T07:16:16;1.10;99.90
12504;DHT22;6316;48.118;-1.690;2022-12-07T07:18:42;1.20;99.90
12504;DHT22;6316;48.118;-1.690;2022-12-07T07:21:08;1.20;99.90
12504;DHT22;6316;48.118;-1.690;2022-12-07T07:23:33;1.20;99.90
12504;DHT22;6316;48.118;-1.690;2022-12-07T07:25:59;1.30;99.90
12504;DHT22;6316;48.118;-1.690;2022-12-07T07:28:24;1.30;99.90
12504;DHT22;6316;48.118;-1.690;2022-12-07T07:30:50;1.30;99.90
12504;DHT22;6316;48.118;-1.690;2022-12-07T07:33:16;1.40;99.90
12504;DHT22;6316;48.118;-1.690;2022-12-07T07:35:42;1.40;99.90
12504;DHT22;6316;48.118;-1.690;2022-12-07T07:38:08;1.50;99.90
12504;DHT22;6316;48.118;-1.690;2022-12-07T07:40:34;1.40;99.90
12504;DHT22;6316;48.118;-1.690;2022-12-07T07:43:00;1.40;99.90
12504;DHT22;6316;48.118;-1.690;2022-12-07T07:45:27;1.40;99.90
12504;DHT22;6316;48.118;-1.690;2022-12-07T07:47:53;1.40;99.90
12504;DHT22;6316;48.118;-1.690;2022-12-07T07:50:20;1.40;99.90
12504;DHT22;6316;48.118;-1.690;2022-12-07T07:52:46;1.50;99.90
12504;DHT22;6316;48.118;-1.690;2022-12-07T07:55:12;1.40;99.90
12504;DHT22;6316;48.118;-1.690;2022-12-07T07:57:38;1.50;99.90
12504;DHT22;6316;48.118;-1.690;2022-12-07T08:00:06;1.50;99.90
12504;DHT22;6316;48.118;-1.690;2022-12-07T08:02:32;1.50;99.90
12504;DHT22;6316;48.118;-1.690;2022-12-07T08:04:58;1.60;99.90
12504;DHT22;6316;48.118;-1.690;2022-12-07T08:07:24;1.60;99.90
12504;DHT22;6316;48.118;-1.690;2022-12-07T08:09:49;1.60;99.90
12504;DHT22;6316;48.118;-1.690;2022-12-07T08:12:15;1.70;99.90
12504;DHT22;6316;48.118;-1.690;2022-12-07T08:14:41;1.70;99.90
12504;DHT22;6316;48.118;-1.690;2022-12-07T08:17:07;1.80;99.90
12504;DHT22;6316;48.118;-1.690;2022-12-07T08:19:33;1.80;99.90
12504;DHT22;6316;48.118;-1.690;2022-12-07T08:21:58;1.80;99.90
12504;DHT22;6316;48.118;-1.690;2022-12-07T08:24:24;1.90;99.90
12504;DHT22;6316;48.118;-1.690;2022-12-07T08:26:50;1.90;99.90
12504;DHT22;6316;48.118;-1.690;2022-12-07T08:29:16;1.90;99.90
12504;DHT22;6316;48.118;-1.690;2022-12-07T08:31:42;2.00;99.90
12504;DHT22;6316;48.118;-1.690;2022-12-07T08:34:09;2.00;99.90
12504;DHT22;6316;48.118;-1.690;2022-12-07T08:36:36;2.10;99.90
12504;DHT22;6316;48.118;-1.690;2022-12-07T08:39:02;2.10;99.90
12504;DHT22;6316;48.118;-1.690;2022-12-07T08:41:27;2.20;99.90
12504;DHT22;6316;48.118;-1.690;2022-12-07T08:43:53;2.30;99.90
12504;DHT22;6316;48.118;-1.690;2022-12-07T08:46:23;2.30;99.90
12504;DHT22;6316;48.118;-1.690;2022-12-07T08:49:04;2.50;99.90
12504;DHT22;6316;48.118;-1.690;2022-12-07T08:51:31;2.50;99.90
12504;DHT22;6316;48.118;-1.690;2022-12-07T08:53:59;2.60;99.90
12504;DHT22;6316;48.118;-1.690;2022-12-07T08:56:26;2.80;99.90
12504;DHT22;6316;48.118;-1.690;2022-12-07T08:58:52;2.90;99.90
12504;DHT22;6316;48.118;-1.690;2022-12-07T09:01:18;2.90;99.90
12504;DHT22;6316;48.118;-1.690;2022-12-07T09:03:44;2.90;99.90
12504;DHT22;6316;48.118;-1.690;2022-12-07T09:06:09;3.00;99.90
12504;DHT22;6316;48.118;-1.690;2022-12-07T09:08:39;2.90;99.90
12504;DHT22;6316;48.118;-1.690;2022-12-07T09:11:05;2.80;99.90
12504;DHT22;6316;48.118;-1.690;2022-12-07T09:13:31;2.70;99.90
12504;DHT22;6316;48.118;-1.690;2022-12-07T09:15:56;2.70;99.90
12504;DHT22;6316;48.118;-1.690;2022-12-07T09:18:22;2.60;99.90
12504;DHT22;6316;48.118;-1.690;2022-12-07T09:20:49;2.70;99.90
12504;DHT22;6316;48.118;-1.690;2022-12-07T09:23:15;2.60;99.90
12504;DHT22;6316;48.118;-1.690;2022-12-07T09:25:41;2.70;99.90
12504;DHT22;6316;48.118;-1.690;2022-12-07T09:28:07;2.70;99.90
12504;DHT22;6316;48.118;-1.690;2022-12-07T09:30:35;2.70;99.90
12504;DHT22;6316;48.118;-1.690;2022-12-07T09:33:01;2.80;99.90
12504;DHT22;6316;48.118;-1.690;2022-12-07T09:35:27;2.80;99.90
12504;DHT22;6316;48.118;-1.690;2022-12-07T09:37:52;2.90;99.90
12504;DHT22;6316;48.118;-1.690;2022-12-07T09:40:20;2.80;99.90
12504;DHT22;6316;48.118;-1.690;2022-12-07T09:42:53;2.90;99.90
12504;DHT22;6316;48.118;-1.690;2022-12-07T09:45:38;2.90;99.90
12504;DHT22;6316;48.118;-1.690;2022-12-07T09:48:04;2.90;99.90
12504;DHT22;6316;48.118;-1.690;2022-12-07T09:50:30;2.90;99.90
12504;DHT22;6316;48.118;-1.690;2022-12-07T09:53:08;2.90;99.90
12504;DHT22;6316;48.118;-1.690;2022-12-07T09:55:35;2.90;99.90
12504;DHT22;6316;48.118;-1.690;2022-12-07T09:58:01;2.90;99.90
12504;DHT22;6316;48.118;-1.690;2022-12-07T10:00:27;2.90;99.90
12504;DHT22;6316;48.118;-1.690;2022-12-07T10:03:01;3.00;99.90
12504;DHT22;6316;48.118;-1.690;2022-12-07T10:05:47;3.10;99.90
12504;DHT22;6316;48.118;-1.690;2022-12-07T10:08:14;3.30;99.90
12504;DHT22;6316;48.118;-1.690;2022-12-07T10:10:44;3.50;99.90
12504;DHT22;6316;48.118;-1.690;2022-12-07T10:13:16;3.50;99.90
12504;DHT22;6316;48.118;-1.690;2022-12-07T10:18:38;3.90;99.90
12504;DHT22;6316;48.118;-1.690;2022-12-07T10:24:03;4.20;99.90
12504;DHT22;6316;48.118;-1.690;2022-12-07T10:31:39;4.00;99.90
12504;DHT22;6316;48.118;-1.690;2022-12-07T10:34:35;3.90;99.90
12504;DHT22;6316;48.118;-1.690;2022-12-07T10:39:51;4.00;99.90
12504;DHT22;6316;48.118;-1.690;2022-12-07T10:42:28;4.00;99.90
12504;DHT22;6316;48.118;-1.690;2022-12-07T10:47:47;4.30;99.90
12504;DHT22;6316;48.118;-1.690;2022-12-07T11:04:33;4.20;99.90
12504;DHT22;6316;48.118;-1.690;2022-12-07T11:09:55;3.90;99.90
12504;DHT22;6316;48.118;-1.690;2022-12-07T11:15:10;3.90;99.90
12504;DHT22;6316;48.118;-1.690;2022-12-07T11:17:56;3.90;99.90
12504;DHT22;6316;48.118;-1.690;2022-12-07T11:23:12;3.90;99.90
12504;DHT22;6316;48.118;-1.690;2022-12-07T11:25:50;3.90;99.90
12504;DHT22;6316;48.118;-1.690;2022-12-07T11:32:01;3.90;99.90
12504;DHT22;6316;48.118;-1.690;2022-12-07T11:34:51;3.90;99.90
12504;DHT22;6316;48.118;-1.690;2022-12-07T11:37:23;4.00;99.90
12504;DHT22;6316;48.118;-1.690;2022-12-07T11:40:00;4.00;99.90
12504;DHT22;6316;48.118;-1.690;2022-12-07T11:42:44;4.00;99.90
12504;DHT22;6316;48.118;-1.690;2022-12-07T11:45:24;4.10;99.90
12504;DHT22;6316;48.118;-1.690;2022-12-07T11:48:02;4.10;99.90
12504;DHT22;6316;48.118;-1.690;2022-12-07T11:50:41;4.10;99.90
12504;DHT22;6316;48.118;-1.690;2022-12-07T11:55:44;4.20;99.90
12504;DHT22;6316;48.118;-1.690;2022-12-07T11:59:38;4.20;99.90
12504;DHT22;6316;48.118;-1.690;2022-12-07T12:06:42;4.30;99.90
12504;DHT22;6316;48.118;-1.690;2022-12-07T12:09:33;4.30;99.90
12504;DHT22;6316;48.118;-1.690;2022-12-07T12:12:04;4.30;99.90
12504;DHT22;6316;48.118;-1.690;2022-12-07T12:20:57;4.30;99.90
12504;DHT22;6316;48.118;-1.690;2022-12-07T12:23:45;4.30;99.90
12504;DHT22;6316;48.118;-1.690;2022-12-07T12:26:35;4.40;99.90
12504;DHT22;6316;48.118;-1.690;2022-12-07T12:29:04;4.40;99.90
12504;DHT22;6316;48.118;-1.690;2022-12-07T12:31:39;4.40;99.90
12504;DHT22;6316;48.118;-1.690;2022-12-07T12:34:33;4.50;99.90
12504;DHT22;6316;48.118;-1.690;2022-12-07T12:36:59;4.50;99.90
12504;DHT22;6316;48.118;-1.690;2022-12-07T12:39:24;4.50;99.90
12504;DHT22;6316;48.118;-1.690;2022-12-07T12:41:55;4.50;99.90
12504;DHT22;6316;48.118;-1.690;2022-12-07T12:46:57;4.50;99.90
12504;DHT22;6316;48.118;-1.690;2022-12-07T12:51:53;4.60;99.90
12504;DHT22;6316;48.118;-1.690;2022-12-07T12:54:30;4.60;99.90
12504;DHT22;6316;48.118;-1.690;2022-12-07T13:02:47;4.70;99.90
12504;DHT22;6316;48.118;-1.690;2022-12-07T13:10:33;4.80;99.90
12504;DHT22;6316;48.118;-1.690;2022-12-07T13:15:51;4.80;99.90
12504;DHT22;6316;48.118;-1.690;2022-12-07T13:26:36;4.90;99.90
12504;DHT22;6316;48.118;-1.690;2022-12-07T13:31:44;5.00;99.90
12504;DHT22;6316;48.118;-1.690;2022-12-07T13:34:39;5.00;99.90
12504;DHT22;6316;48.118;-1.690;2022-12-07T13:37:21;5.00;99.90
12504;DHT22;6316;48.118;-1.690;2022-12-07T13:39:52;5.00;99.90
12504;DHT22;6316;48.118;-1.690;2022-12-07T13:42:30;5.10;99.90
12504;DHT22;6316;48.118;-1.690;2022-12-07T13:44:58;5.10;99.90
12504;DHT22;6316;48.118;-1.690;2022-12-07T13:47:46;5.10;99.90
12504;DHT22;6316;48.118;-1.690;2022-12-07T13:50:29;5.20;99.90
12504;DHT22;6316;48.118;-1.690;2022-12-07T13:52:59;5.20;99.90
12504;DHT22;6316;48.118;-1.690;2022-12-07T13:55:26;5.20;99.90
12504;DHT22;6316;48.118;-1.690;2022-12-07T13:57:53;5.20;99.90
12504;DHT22;6316;48.118;-1.690;2022-12-07T14:00:22;5.30;99.90
12504;DHT22;6316;48.118;-1.690;2022-12-07T14:02:56;5.30;99.90
12504;DHT22;6316;48.118;-1.690;2022-12-07T14:05:31;5.30;99.90
12504;DHT22;6316;48.118;-1.690;2022-12-07T14:08:00;5.40;99.90
12504;DHT22;6316;48.118;-1.690;2022-12-07T14:10:32;5.40;99.90
12504;DHT22;6316;48.118;-1.690;2022-12-07T14:12:58;5.40;99.90
12504;DHT22;6316;48.118;-1.690;2022-12-07T14:15:32;5.50;99.90
12504;DHT22;6316;48.118;-1.690;2022-12-07T14:18:02;5.50;99.90
12504;DHT22;6316;48.118;-1.690;2022-12-07T14:20:35;5.50;99.90
12504;DHT22;6316;48.118;-1.690;2022-12-07T14:23:02;5.50;99.90
12504;DHT22;6316;48.118;-1.690;2022-12-07T14:25:48;5.50;99.90
12504;DHT22;6316;48.118;-1.690;2022-12-07T14:28:32;5.60;99.90
12504;DHT22;6316;48.118;-1.690;2022-12-07T14:31:00;5.50;99.90
12504;DHT22;6316;48.118;-1.690;2022-12-07T14:33:26;5.60;99.90
12504;DHT22;6316;48.118;-1.690;2022-12-07T14:35:53;5.60;99.90
12504;DHT22;6316;48.118;-1.690;2022-12-07T14:38:24;5.60;99.90
12504;DHT22;6316;48.118;-1.690;2022-12-07T14:40:51;5.60;99.90
12504;DHT22;6316;48.118;-1.690;2022-12-07T14:43:18;5.70;99.90
12504;DHT22;6316;48.118;-1.690;2022-12-07T14:45:44;5.70;99.90
12504;DHT22;6316;48.118;-1.690;2022-12-07T14:48:14;5.80;99.90
12504;DHT22;6316;48.118;-1.690;2022-12-07T14:50:51;5.80;99.90
12504;DHT22;6316;48.118;-1.690;2022-12-07T14:53:21;5.80;99.90
12504;DHT22;6316;48.118;-1.690;2022-12-07T14:55:48;5.90;99.90
12504;DHT22;6316;48.118;-1.690;2022-12-07T14:58:15;5.90;99.90
12504;DHT22;6316;48.118;-1.690;2022-12-07T15:00:41;6.00;99.90
12504;DHT22;6316;48.118;-1.690;2022-12-07T15:03:06;6.00;99.90
12504;DHT22;6316;48.118;-1.690;2022-12-07T15:05:33;6.00;99.90
12504;DHT22;6316;48.118;-1.690;2022-12-07T15:07:59;6.00;99.90
12504;DHT22;6316;48.118;-1.690;2022-12-07T15:10:27;6.10;99.90
12504;DHT22;6316;48.118;-1.690;2022-12-07T15:12:56;6.00;99.90
12504;DHT22;6316;48.118;-1.690;2022-12-07T15:15:41;6.00;99.90
12504;DHT22;6316;48.118;-1.690;2022-12-07T15:18:07;6.00;99.90
12504;DHT22;6316;48.118;-1.690;2022-12-07T15:20:33;6.00;99.90
12504;DHT22;6316;48.118;-1.690;2022-12-07T15:22:59;6.00;99.90
12504;DHT22;6316;48.118;-1.690;2022-12-07T15:25:24;5.90;99.90
12504;DHT22;6316;48.118;-1.690;2022-12-07T15:27:50;5.90;99.90
12504;DHT22;6316;48.118;-1.690;2022-12-07T15:30:16;5.90;99.90
12504;DHT22;6316;48.118;-1.690;2022-12-07T15:32:41;5.90;99.90
12504;DHT22;6316;48.118;-1.690;2022-12-07T15:35:07;5.90;99.90
12504;DHT22;6316;48.118;-1.690;2022-12-07T15:37:33;5.80;99.90
12504;DHT22;6316;48.118;-1.690;2022-12-07T15:39:59;5.80;99.90
12504;DHT22;6316;48.118;-1.690;2022-12-07T15:42:24;5.70;99.90
12504;DHT22;6316;48.118;-1.690;2022-12-07T15:44:50;5.70;99.90
12504;DHT22;6316;48.118;-1.690;2022-12-07T15:47:33;5.60;99.90
12504;DHT22;6316;48.118;-1.690;2022-12-07T15:49:59;5.60;99.90
12504;DHT22;6316;48.118;-1.690;2022-12-07T15:52:24;5.60;99.90
12504;DHT22;6316;48.118;-1.690;2022-12-07T15:54:50;5.50;99.90
12504;DHT22;6316;48.118;-1.690;2022-12-07T15:57:16;5.50;99.90
12504;DHT22;6316;48.118;-1.690;2022-12-07T15:59:41;5.50;99.90
12504;DHT22;6316;48.118;-1.690;2022-12-07T16:02:09;5.50;99.90
12504;DHT22;6316;48.118;-1.690;2022-12-07T16:04:35;5.40;99.90
12504;DHT22;6316;48.118;-1.690;2022-12-07T16:07:01;5.30;99.90
12504;DHT22;6316;48.118;-1.690;2022-12-07T16:09:27;5.30;99.90
12504;DHT22;6316;48.118;-1.690;2022-12-07T16:11:52;5.20;99.90
12504;DHT22;6316;48.118;-1.690;2022-12-07T16:14:18;5.20;99.90
12504;DHT22;6316;48.118;-1.690;2022-12-07T16:16:44;5.10;99.90
12504;DHT22;6316;48.118;-1.690;2022-12-07T16:19:09;5.10;99.90
12504;DHT22;6316;48.118;-1.690;2022-12-07T16:21:36;5.10;99.90
12504;DHT22;6316;48.118;-1.690;2022-12-07T16:24:03;5.00;99.90
12504;DHT22;6316;48.118;-1.690;2022-12-07T16:26:29;5.00;99.90
12504;DHT22;6316;48.118;-1.690;2022-12-07T16:28:54;4.90;99.90
12504;DHT22;6316;48.118;-1.690;2022-12-07T16:31:23;4.90;99.90
12504;DHT22;6316;48.118;-1.690;2022-12-07T16:33:50;4.90;99.90
12504;DHT22;6316;48.118;-1.690;2022-12-07T16:36:16;4.80;99.90
12504;DHT22;6316;48.118;-1.690;2022-12-07T16:38:43;4.80;99.90
12504;DHT22;6316;48.118;-1.690;2022-12-07T16:41:09;4.80;99.90
12504;DHT22;6316;48.118;-1.690;2022-12-07T16:43:35;4.70;99.90
12504;DHT22;6316;48.118;-1.690;2022-12-07T16:46:02;4.70;99.90
12504;DHT22;6316;48.118;-1.690;2022-12-07T16:48:28;4.70;99.90
12504;DHT22;6316;48.118;-1.690;2022-12-07T16:50:54;4.70;99.90
12504;DHT22;6316;48.118;-1.690;2022-12-07T16:53:21;4.60;99.90
12504;DHT22;6316;48.118;-1.690;2022-12-07T16:55:48;4.60;99.90
12504;DHT22;6316;48.118;-1.690;2022-12-07T16:58:14;4.60;99.90
12504;DHT22;6316;48.118;-1.690;2022-12-07T17:00:41;4.70;99.90
12504;DHT22;6316;48.118;-1.690;2022-12-07T17:03:08;4.60;99.90
12504;DHT22;6316;48.118;-1.690;2022-12-07T17:05:44;4.50;99.90
12504;DHT22;6316;48.118;-1.690;2022-12-07T17:08:12;4.50;99.90
12504;DHT22;6316;48.118;-1.690;2022-12-07T17:10:40;4.50;99.90
12504;DHT22;6316;48.118;-1.690;2022-12-07T17:13:07;4.50;99.90
12504;DHT22;6316;48.118;-1.690;2022-12-07T17:15:58;4.40;99.90
12504;DHT22;6316;48.118;-1.690;2022-12-07T17:18:26;4.40;99.90
12504;DHT22;6316;48.118;-1.690;2022-12-07T17:20:51;4.30;99.90
12504;DHT22;6316;48.118;-1.690;2022-12-07T17:23:17;4.30;99.90
12504;DHT22;6316;48.118;-1.690;2022-12-07T17:25:43;4.30;99.90
12504;DHT22;6316;48.118;-1.690;2022-12-07T17:28:08;4.20;99.90
12504;DHT22;6316;48.118;-1.690;2022-12-07T17:30:34;4.10;99.90
12504;DHT22;6316;48.118;-1.690;2022-12-07T17:32:59;4.20;99.90
12504;DHT22;6316;48.118;-1.690;2022-12-07T17:35:25;4.20;99.90
12504;DHT22;6316;48.118;-1.690;2022-12-07T17:37:51;4.20;99.90
12504;DHT22;6316;48.118;-1.690;2022-12-07T17:40:16;4.10;99.90
12504;DHT22;6316;48.118;-1.690;2022-12-07T17:42:42;4.10;99.90
12504;DHT22;6316;48.118;-1.690;2022-12-07T17:45:12;4.10;99.90
12504;DHT22;6316;48.118;-1.690;2022-12-07T17:47:38;4.10;99.90
12504;DHT22;6316;48.118;-1.690;2022-12-07T17:50:05;4.00;99.90
12504;DHT22;6316;48.118;-1.690;2022-12-07T17:52:31;4.00;99.90